Time;durP1;ratioP1;P1;durP2;ratioP2;P2;SDS_P1;SDS_P2;PMS_P1;PMS_P2;Temp;Humidity;BMP_temperature;BMP_pressure;BME280_temperature;BME280_humidity;BME280_pressure;Samples;Min_cycle;Max_cycle;Signal;HPM_P1;HPM_P2
2021/06/30 00:00:30;;;;;;;21.95;12.82;;;15.40;96.30;;;;;;5033474;28;20490;-50
2021/06/30 00:02:56;;;;;;;21.33;13.32;;;15.40;96.40;;;;;;5045428;28;20033;-50
2021/06/30 00:05:23;;;;;;;22.42;13.55;;;15.30;96.40;;;;;;5031230;28;20046;-47
2021/06/30 00:07:49;;;;;;;23.10;13.15;;;15.40;96.50;;;;;;5016060;28;20410;-47
2021/06/30 00:10:16;;;;;;;22.63;13.20;;;15.40;96.50;;;;;;5018587;28;20042;-49
2021/06/30 00:12:41;;;;;;;21.30;12.82;;;15.30;96.40;;;;;;5017166;28;20365;-50
2021/06/30 00:15:18;;;;;;;24.98;13.77;;;15.30;96.50;;;;;;5022485;28;20046;-48
2021/06/30 00:17:45;;;;;;;21.75;12.43;;;15.30;96.50;;;;;;5018089;28;20041;-48
2021/06/30 00:20:12;;;;;;;17.95;12.90;;;15.40;96.60;;;;;;5017163;28;20045;-50
2021/06/30 00:22:38;;;;;;;21.73;12.68;;;15.30;96.40;;;;;;5015432;28;20522;-49
2021/06/30 00:25:04;;;;;;;21.63;12.18;;;15.30;96.50;;;;;;5014043;28;20146;-50
2021/06/30 00:27:30;;;;;;;21.40;13.45;;;15.30;96.50;;;;;;5033776;28;20034;-47
2021/06/30 00:29:56;;;;;;;22.55;12.18;;;15.30;96.50;;;;;;5028541;28;20037;-51
2021/06/30 00:32:22;;;;;;;22.60;13.20;;;15.30;96.60;;;;;;5040518;28;20040;-51
2021/06/30 00:34:48;;;;;;;22.45;13.27;;;15.30;96.50;;;;;;5042312;28;20049;-51
2021/06/30 00:37:13;;;;;;;23.00;12.52;;;15.30;96.50;;;;;;5034869;28;20043;-51
2021/06/30 00:39:40;;;;;;;18.60;11.57;;;15.30;96.60;;;;;;5026469;28;20053;-51
2021/06/30 00:42:06;;;;;;;23.02;12.88;;;15.20;96.60;;;;;;5041138;28;20115;-50
2021/06/30 00:44:34;;;;;;;18.55;12.75;;;15.30;96.70;;;;;;5030168;28;20185;-49
2021/06/30 00:47:03;;;;;;;19.98;11.52;;;15.30;96.70;;;;;;5047961;28;20061;-48
2021/06/30 00:49:29;;;;;;;16.98;11.93;;;15.30;96.80;;;;;;5030967;28;20069;-48
2021/06/30 00:51:55;;;;;;;22.27;11.35;;;15.30;96.60;;;;;;5025050;28;20045;-50
2021/06/30 00:54:21;;;;;;;20.95;11.38;;;15.30;96.70;;;;;;5033183;28;20037;-49
2021/06/30 00:56:48;;;;;;;19.33;12.00;;;15.20;96.30;;;;;;5039543;28;20142;-49
2021/06/30 00:59:14;;;;;;;20.75;12.02;;;15.30;96.50;;;;;;5041339;28;20044;-48
2021/06/30 01:01:40;;;;;;;20.15;12.13;;;15.20;96.40;;;;;;5020841;28;20033;-48
2021/06/30 01:04:06;;;;;;;22.05;12.43;;;15.20;96.50;;;;;;5026186;28;20108;-51
2021/06/30 01:06:38;;;;;;;20.25;12.68;;;15.20;96.60;;;;;;5027751;28;20060;-51
2021/06/30 01:09:06;;;;;;;18.45;12.35;;;15.30;96.70;;;;;;5034753;28;20482;-48
2021/06/30 01:11:42;;;;;;;17.75;11.98;;;15.20;96.60;;;;;;5002475;28;20046;-51
2021/06/30 01:14:08;;;;;;;16.98;11.65;;;15.10;96.60;;;;;;5028154;28;20061;-51
2021/06/30 01:16:34;;;;;;;17.38;11.57;;;15.10;96.70;;;;;;5027538;28;20038;-49
2021/06/30 01:19:00;;;;;;;19.42;11.80;;;15.10;96.70;;;;;;5031772;28;20041;-48
2021/06/30 01:21:26;;;;;;;19.80;11.55;;;15.20;96.90;;;;;;5031920;28;20045;-51
2021/06/30 01:23:52;;;;;;;18.92;11.30;;;15.20;96.70;;;;;;4998359;28;20132;-48
2021/06/30 01:26:18;;;;;;;21.10;12.15;;;15.20;96.60;;;;;;5022132;28;20045;-48
2021/06/30 01:28:43;;;;;;;15.90;11.05;;;15.30;96.70;;;;;;5016269;28;20045;-55
2021/06/30 01:31:09;;;;;;;17.80;10.98;;;15.20;96.50;;;;;;5039793;28;20034;-49
2021/06/30 01:33:35;;;;;;;16.33;10.80;;;15.20;96.60;;;;;;5029048;28;20129;-48
2021/06/30 01:36:02;;;;;;;20.98;11.10;;;15.10;96.70;;;;;;5027074;28;20124;-50
2021/06/30 01:38:30;;;;;;;14.50;10.90;;;15.10;96.80;;;;;;5048438;28;20045;-47
2021/06/30 01:40:57;;;;;;;17.98;11.25;;;15.10;96.80;;;;;;5029928;28;20136;-49
2021/06/30 01:43:24;;;;;;;20.58;12.48;;;15.10;96.90;;;;;;5039207;28;20041;-47
2021/06/30 01:45:51;;;;;;;21.30;11.77;;;15.10;96.80;;;;;;5034046;28;20417;-49
2021/06/30 01:48:17;;;;;;;22.65;12.40;;;15.10;96.80;;;;;;5035254;28;20053;-51
2021/06/30 01:50:43;;;;;;;20.02;11.20;;;15.10;96.80;;;;;;5035763;28;20048;-47
2021/06/30 01:53:09;;;;;;;21.55;12.00;;;15.10;96.80;;;;;;5033621;28;20037;-52
2021/06/30 01:55:36;;;;;;;17.23;12.25;;;15.10;96.90;;;;;;5033506;28;20041;-48
2021/06/30 01:58:03;;;;;;;18.38;12.65;;;15.00;96.90;;;;;;5034054;28;20048;-47
2021/06/30 02:00:28;;;;;;;21.48;13.40;;;15.00;96.90;;;;;;5034788;28;20049;-49
2021/06/30 02:02:54;;;;;;;22.95;12.45;;;15.00;97.00;;;;;;5033486;28;20607;-52
2021/06/30 02:05:22;;;;;;;24.00;13.80;;;15.10;97.10;;;;;;5034877;28;20085;-48
2021/06/30 02:07:54;;;;;;;24.92;13.20;;;15.10;97.00;;;;;;5043254;28;20045;-48
2021/06/30 02:10:22;;;;;;;23.95;13.05;;;15.10;97.00;;;;;;5028567;28;20033;-49
2021/06/30 02:12:48;;;;;;;18.60;12.63;;;15.10;97.10;;;;;;5041929;28;20486;-49
2021/06/30 02:15:23;;;;;;;25.98;13.38;;;15.10;97.00;;;;;;5026807;28;20068;-47
2021/06/30 02:17:55;;;;;;;25.75;13.20;;;15.00;97.00;;;;;;5027963;28;20048;-48
2021/06/30 02:20:22;;;;;;;22.17;13.48;;;15.10;97.00;;;;;;5023673;28;20057;-47
2021/06/30 02:22:49;;;;;;;27.10;13.85;;;15.00;97.00;;;;;;5030070;28;20041;-49
2021/06/30 02:25:17;;;;;;;21.65;13.38;;;15.00;96.90;;;;;;5013689;28;20038;-50
2021/06/30 02:27:44;;;;;;;27.95;14.57;;;15.10;96.60;;;;;;5024250;28;20045;-49
2021/06/30 02:30:13;;;;;;;21.63;12.65;;;15.00;96.70;;;;;;5020390;28;20046;-48
2021/06/30 02:32:40;;;;;;;29.48;13.95;;;15.00;96.90;;;;;;5014318;28;20038;-48
2021/06/30 02:35:09;;;;;;;30.77;14.57;;;15.20;96.60;;;;;;5012407;28;20034;-50
2021/06/30 02:37:36;;;;;;;26.30;14.23;;;15.00;96.60;;;;;;5027789;28;20056;-47
2021/06/30 02:40:03;;;;;;;28.02;14.20;;;15.00;96.80;;;;;;5042365;28;20045;-50
2021/06/30 02:42:29;;;;;;;25.23;13.70;;;15.00;96.90;;;;;;5019554;28;20045;-49
2021/06/30 02:44:54;;;;;;;22.77;14.80;;;14.90;97.00;;;;;;5042124;28;20047;-48
2021/06/30 02:47:20;;;;;;;23.98;14.23;;;14.90;97.00;;;;;;5020632;28;20057;-50
2021/06/30 02:49:46;;;;;;;21.95;13.27;;;14.90;97.00;;;;;;5029183;28;20433;-48
2021/06/30 02:52:12;;;;;;;24.15;13.00;;;14.90;97.10;;;;;;5026777;28;20120;-48
2021/06/30 02:54:39;;;;;;;22.92;13.70;;;14.90;97.00;;;;;;5047135;28;20044;-48
2021/06/30 02:57:05;;;;;;;24.65;13.75;;;15.00;97.00;;;;;;5026026;28;20063;-47
2021/06/30 02:59:31;;;;;;;24.63;13.45;;;14.90;96.70;;;;;;5019953;28;20083;-47
2021/06/30 03:01:57;;;;;;;20.73;13.15;;;14.80;96.90;;;;;;5028252;28;20064;-49
2021/06/30 03:04:23;;;;;;;20.67;13.40;;;14.80;97.00;;;;;;5024612;28;20049;-47
2021/06/30 03:06:49;;;;;;;23.85;12.85;;;14.80;97.10;;;;;;5031240;28;20490;-48
2021/06/30 03:09:18;;;;;;;21.35;13.25;;;14.80;97.20;;;;;;5037832;28;20468;-48
2021/06/30 03:11:44;;;;;;;22.85;12.63;;;14.80;97.00;;;;;;5042239;28;20412;-48
2021/06/30 03:14:09;;;;;;;19.75;12.00;;;14.80;97.10;;;;;;5024209;28;20124;-48
2021/06/30 03:16:36;;;;;;;24.40;13.10;;;14.80;97.20;;;;;;5045895;28;20045;-48
2021/06/30 03:19:02;;;;;;;19.05;12.75;;;14.80;96.90;;;;;;5032723;28;20052;-50
2021/06/30 03:21:28;;;;;;;18.88;12.00;;;14.80;97.00;;;;;;5019817;28;20041;-48
2021/06/30 03:23:54;;;;;;;18.80;12.02;;;14.80;97.10;;;;;;5034883;28;20049;-48
2021/06/30 03:26:21;;;;;;;18.20;11.77;;;14.80;97.00;;;;;;5029712;28;20040;-48
2021/06/30 03:28:46;;;;;;;16.63;11.57;;;14.90;97.00;;;;;;5034549;28;20042;-48
2021/06/30 03:31:12;;;;;;;17.77;11.52;;;15.00;96.70;;;;;;5032950;28;20045;-49
2021/06/30 03:33:38;;;;;;;16.08;10.73;;;14.90;96.80;;;;;;5016721;28;20821;-49
2021/06/30 03:36:04;;;;;;;18.35;11.50;;;14.80;97.00;;;;;;5026362;28;20187;-49
2021/06/30 03:38:32;;;;;;;13.98;10.40;;;14.90;97.00;;;;;;5024413;28;20048;-51
2021/06/30 03:40:58;;;;;;;18.50;11.88;;;14.90;97.00;;;;;;5031735;28;20163;-48
2021/06/30 03:43:24;;;;;;;15.43;11.10;;;14.80;97.10;;;;;;5031247;28;20123;-48
2021/06/30 03:45:50;;;;;;;17.20;11.13;;;14.80;97.20;;;;;;5047020;28;20176;-50
2021/06/30 03:48:15;;;;;;;16.48;11.13;;;14.90;97.10;;;;;;5031690;28;20120;-51
2021/06/30 03:50:41;;;;;;;15.93;11.65;;;14.90;97.00;;;;;;5030995;28;20048;-52
2021/06/30 03:53:07;;;;;;;16.08;11.35;;;14.80;96.90;;;;;;5031881;28;20049;-48
2021/06/30 03:55:32;;;;;;;19.10;11.20;;;14.80;97.00;;;;;;5015704;28;20510;-49
2021/06/30 03:57:58;;;;;;;16.90;11.60;;;14.80;97.20;;;;;;5033449;28;20045;-51
2021/06/30 04:00:26;;;;;;;16.77;10.88;;;14.90;97.40;;;;;;5036102;28;20398;-48
2021/06/30 04:02:54;;;;;;;20.75;11.75;;;14.90;96.80;;;;;;5032777;28;20500;-48
2021/06/30 04:05:23;;;;;;;16.73;9.93;;;14.80;97.00;;;;;;5043521;28;20383;-48
2021/06/30 04:07:50;;;;;;;17.85;11.10;;;14.80;97.00;;;;;;5039975;28;20041;-50
2021/06/30 04:10:20;;;;;;;19.05;11.60;;;14.80;97.20;;;;;;5024735;28;20112;-47
2021/06/30 04:12:45;;;;;;;21.00;10.45;;;14.80;97.30;;;;;;5033021;28;20048;-49
2021/06/30 04:15:11;;;;;;;17.42;10.30;;;14.80;97.20;;;;;;5023536;28;20037;-47
2021/06/30 04:17:37;;;;;;;18.00;10.52;;;14.80;96.90;;;;;;5020474;28;20048;-47
2021/06/30 04:20:06;;;;;;;17.15;10.63;;;14.80;97.00;;;;;;5058778;28;20041;-49
2021/06/30 04:22:32;;;;;;;16.80;10.88;;;14.80;96.90;;;;;;5040917;28;20041;-52
2021/06/30 04:24:58;;;;;;;17.10;11.13;;;14.80;96.80;;;;;;5019104;28;20041;-50
2021/06/30 04:27:23;;;;;;;16.10;10.90;;;14.80;97.20;;;;;;5031022;28;20133;-46
2021/06/30 04:29:49;;;;;;;18.90;11.77;;;14.80;97.10;;;;;;5018332;28;20510;-47
2021/06/30 04:32:15;;;;;;;18.42;11.15;;;14.80;97.00;;;;;;5033226;28;20252;-47
2021/06/30 04:34:41;;;;;;;18.83;11.32;;;14.80;96.90;;;;;;5049596;28;20097;-46
2021/06/30 04:37:07;;;;;;;16.27;10.77;;;14.90;96.90;;;;;;5032617;28;20175;-46
2021/06/30 04:39:33;;;;;;;14.07;10.55;;;14.80;96.90;;;;;;5035992;28;20551;-50
2021/06/30 04:41:59;;;;;;;16.67;11.25;;;14.70;97.00;;;;;;5047117;28;20120;-47
2021/06/30 04:44:24;;;;;;;15.63;10.52;;;14.70;97.20;;;;;;5031586;28;20163;-48
2021/06/30 04:46:50;;;;;;;17.02;10.80;;;14.80;97.10;;;;;;5030486;28;20120;-48
2021/06/30 04:49:16;;;;;;;18.55;10.93;;;14.80;97.00;;;;;;5033617;28;20042;-47
2021/06/30 04:51:44;;;;;;;19.38;10.65;;;14.70;97.10;;;;;;5039806;28;20268;-49
2021/06/30 04:54:10;;;;;;;18.40;10.85;;;14.80;97.20;;;;;;5034502;28;20036;-47
2021/06/30 04:56:39;;;;;;;17.23;11.27;;;14.80;96.80;;;;;;5030247;28;20248;-46
2021/06/30 04:59:06;;;;;;;18.40;11.00;;;14.90;96.50;;;;;;5031885;28;20046;-48
2021/06/30 05:01:32;;;;;;;18.33;11.23;;;14.80;96.90;;;;;;5011279;28;20045;-47
2021/06/30 05:04:00;;;;;;;22.52;11.75;;;14.70;96.90;;;;;;5037669;28;20051;-48
2021/06/30 05:06:26;;;;;;;18.65;11.90;;;14.60;97.00;;;;;;5031896;28;20041;-46
2021/06/30 05:08:52;;;;;;;18.73;12.73;;;14.70;97.10;;;;;;5020944;28;20411;-47
2021/06/30 05:11:18;;;;;;;19.95;12.45;;;14.70;97.20;;;;;;5032468;28;20038;-49
2021/06/30 05:13:44;;;;;;;24.10;13.07;;;14.70;97.20;;;;;;5046573;28;20045;-47
2021/06/30 05:16:09;;;;;;;26.95;13.48;;;14.70;97.30;;;;;;5041955;28;20441;-49
2021/06/30 05:18:35;;;;;;;22.63;12.90;;;14.70;97.20;;;;;;5032858;28;20091;-49
2021/06/30 05:21:01;;;;;;;23.77;13.15;;;14.70;97.20;;;;;;5031595;28;20407;-48
2021/06/30 05:23:27;;;;;;;23.42;12.95;;;14.70;97.10;;;;;;5032187;28;20045;-47
2021/06/30 05:25:53;;;;;;;22.25;13.02;;;14.80;96.40;;;;;;5025748;28;20046;-50
2021/06/30 05:28:19;;;;;;;28.05;14.95;;;14.90;96.60;;;;;;5040415;28;20046;-49
2021/06/30 05:30:45;;;;;;;27.48;14.32;;;14.70;96.70;;;;;;5033097;28;20049;-50
2021/06/30 05:33:11;;;;;;;27.35;14.40;;;14.70;97.00;;;;;;5018008;28;20449;-51
2021/06/30 05:35:37;;;;;;;24.77;14.07;;;14.60;97.10;;;;;;5031754;28;20517;-48
2021/06/30 05:38:03;;;;;;;28.00;14.43;;;14.60;97.20;;;;;;5034079;28;20045;-49
2021/06/30 05:40:29;;;;;;;26.08;14.10;;;14.70;97.10;;;;;;5033822;28;20049;-50
2021/06/30 05:42:55;;;;;;;27.48;13.90;;;14.70;97.00;;;;;;5030674;28;20053;-51
2021/06/30 05:45:22;;;;;;;28.35;14.73;;;14.60;97.00;;;;;;5025624;28;20033;-48
2021/06/30 05:47:49;;;;;;;29.65;14.00;;;14.70;97.10;;;;;;5007949;28;20062;-49
2021/06/30 05:50:17;;;;;;;26.88;13.75;;;14.70;97.10;;;;;;5052492;28;20046;-47
2021/06/30 05:52:43;;;;;;;24.17;12.93;;;14.80;96.90;;;;;;5032943;28;20045;-48
2021/06/30 05:55:14;;;;;;;24.30;13.60;;;14.80;96.70;;;;;;5049635;28;20556;-48
2021/06/30 05:57:40;;;;;;;24.15;13.75;;;14.70;96.80;;;;;;5038312;28;20323;-47
2021/06/30 06:00:15;;;;;;;24.35;13.65;;;14.80;96.60;;;;;;5030439;28;20608;-49
2021/06/30 06:02:41;;;;;;;26.95;13.02;;;14.70;96.80;;;;;;5020076;28;20049;-48
2021/06/30 06:05:07;;;;;;;26.65;13.68;;;14.80;96.70;;;;;;5049868;28;20033;-47
2021/06/30 06:07:33;;;;;;;28.00;13.95;;;14.70;96.70;;;;;;5030172;28;20113;-47
2021/06/30 06:09:59;;;;;;;27.17;13.48;;;14.70;97.10;;;;;;5036759;28;20073;-47
2021/06/30 06:12:26;;;;;;;26.00;13.98;;;14.70;97.00;;;;;;5049954;28;20050;-48
2021/06/30 06:14:53;;;;;;;21.80;13.25;;;14.60;97.20;;;;;;5013445;28;20041;-49
2021/06/30 06:17:18;;;;;;;25.95;13.90;;;14.60;97.20;;;;;;5029607;28;20048;-48
2021/06/30 06:19:44;;;;;;;23.50;13.82;;;14.60;97.20;;;;;;5034450;28;20467;-48
2021/06/30 06:22:10;;;;;;;27.67;14.00;;;14.70;97.20;;;;;;5034632;28;20148;-48
2021/06/30 06:24:35;;;;;;;28.48;14.60;;;14.70;97.10;;;;;;5034459;28;20037;-48
2021/06/30 06:27:01;;;;;;;31.08;14.73;;;14.70;97.10;;;;;;5035814;28;20097;-48
2021/06/30 06:29:28;;;;;;;24.42;13.45;;;14.70;97.20;;;;;;5030864;28;20497;-47
2021/06/30 06:31:54;;;;;;;25.70;14.50;;;14.70;97.50;;;;;;5030373;28;20393;-50
2021/06/30 06:34:20;;;;;;;30.83;14.50;;;14.70;97.30;;;;;;5030069;28;20026;-51
2021/06/30 06:36:50;;;;;;;29.55;14.20;;;14.70;97.30;;;;;;5043867;28;20464;-48
2021/06/30 06:39:20;;;;;;;27.45;13.23;;;14.70;97.30;;;;;;5034516;28;20095;-48
2021/06/30 06:41:47;;;;;;;32.53;13.35;;;14.60;97.20;;;;;;5052896;28;20104;-47
2021/06/30 06:44:13;;;;;;;26.38;13.10;;;14.70;97.20;;;;;;5034132;28;20087;-50
2021/06/30 06:46:39;;;;;;;26.80;12.52;;;14.80;96.70;;;;;;5039167;28;20033;-48
2021/06/30 06:49:09;;;;;;;31.58;13.05;;;14.70;96.70;;;;;;5039408;28;20100;-50
2021/06/30 06:51:36;;;;;;;27.73;12.90;;;14.70;97.00;;;;;;5039019;28;20047;-47
2021/06/30 06:54:02;;;;;;;31.35;13.63;;;14.70;97.00;;;;;;5036657;28;20497;-48
2021/06/30 06:56:28;;;;;;;24.42;14.00;;;14.70;97.10;;;;;;5047643;28;20033;-47
2021/06/30 06:59:00;;;;;;;25.60;12.90;;;14.70;97.10;;;;;;5045397;28;20061;-48
2021/06/30 07:01:26;;;;;;;27.42;12.98;;;14.70;97.00;;;;;;5055671;28;20488;-47
2021/06/30 07:03:52;;;;;;;25.77;12.40;;;14.70;97.10;;;;;;5017437;28;20146;-47
2021/06/30 07:06:19;;;;;;;27.27;13.27;;;14.80;97.00;;;;;;5033853;28;20045;-46
2021/06/30 07:08:49;;;;;;;27.30;13.70;;;14.80;96.90;;;;;;4997581;28;20053;-47
2021/06/30 07:11:15;;;;;;;30.27;13.70;;;14.70;97.00;;;;;;5046312;28;20056;-50
2021/06/30 07:13:42;;;;;;;33.17;13.50;;;14.80;97.10;;;;;;5039850;28;20124;-49
2021/06/30 07:16:08;;;;;;;26.83;13.02;;;14.70;97.10;;;;;;5034410;28;20117;-51
2021/06/30 07:18:35;;;;;;;23.40;12.95;;;14.70;97.10;;;;;;5005080;28;20041;-49
2021/06/30 07:21:03;;;;;;;29.02;14.13;;;14.80;97.20;;;;;;5019637;28;20072;-47
2021/06/30 07:23:29;;;;;;;30.15;13.80;;;14.90;96.80;;;;;;5034611;28;20036;-47
2021/06/30 07:25:56;;;;;;;30.23;14.63;;;14.80;96.90;;;;;;5023263;28;20063;-47
2021/06/30 07:28:23;;;;;;;30.20;14.35;;;14.80;96.90;;;;;;5021357;28;20034;-50
2021/06/30 07:30:49;;;;;;;30.65;13.80;;;14.90;97.00;;;;;;5019798;28;20065;-47
2021/06/30 07:33:16;;;;;;;35.97;14.55;;;14.90;96.70;;;;;;5018197;28;20037;-48
2021/06/30 07:35:42;;;;;;;32.55;14.40;;;14.80;96.90;;;;;;5035014;28;20478;-50
2021/06/30 07:38:08;;;;;;;32.38;15.52;;;14.80;97.00;;;;;;5012462;28;20041;-47
2021/06/30 07:40:35;;;;;;;30.08;16.40;;;14.90;96.60;;;;;;5051905;28;20076;-47
2021/06/30 07:43:01;;;;;;;34.60;15.15;;;14.90;96.70;;;;;;5046411;28;20041;-48
2021/06/30 07:45:27;;;;;;;30.90;15.02;;;14.90;97.00;;;;;;5048798;28;20498;-48
2021/06/30 07:47:53;;;;;;;34.17;14.73;;;14.90;97.10;;;;;;5046817;28;20053;-49
2021/06/30 07:50:20;;;;;;;32.17;15.35;;;14.90;97.00;;;;;;5036473;28;21906;-47
2021/06/30 07:52:48;;;;;;;29.42;15.73;;;14.90;97.10;;;;;;5049673;28;20045;-50
2021/06/30 07:55:15;;;;;;;29.42;14.90;;;14.90;97.00;;;;;;5049504;28;20560;-47
2021/06/30 07:57:41;;;;;;;30.52;15.70;;;14.90;97.00;;;;;;5047481;28;20036;-50
2021/06/30 08:00:11;;;;;;;29.50;14.77;;;15.00;97.10;;;;;;5033559;28;20080;-48
2021/06/30 08:02:37;;;;;;;30.60;15.27;;;15.00;96.70;;;;;;5048220;28;20106;-48
2021/06/30 08:05:04;;;;;;;34.80;15.43;;;15.10;96.70;;;;;;5033543;28;20041;-50
2021/06/30 08:07:30;;;;;;;33.80;15.40;;;15.00;96.90;;;;;;5050454;28;20108;-49
2021/06/30 08:09:56;;;;;;;32.30;14.90;;;15.10;96.30;;;;;;5048821;28;20042;-49
2021/06/30 08:12:22;;;;;;;34.47;15.38;;;15.00;96.60;;;;;;5040663;28;20045;-49
2021/06/30 08:14:49;;;;;;;29.95;15.27;;;15.00;96.70;;;;;;5047631;28;20033;-46
2021/06/30 08:17:15;;;;;;;28.73;14.75;;;15.10;96.90;;;;;;5047866;28;20072;-49
2021/06/30 08:19:41;;;;;;;32.72;14.60;;;15.10;96.90;;;;;;5044824;28;20041;-49
2021/06/30 08:22:10;;;;;;;32.70;14.18;;;15.10;96.70;;;;;;5046260;28;20036;-51
2021/06/30 08:24:41;;;;;;;30.85;13.70;;;15.10;96.70;;;;;;5043640;28;20041;-50
2021/06/30 08:27:08;;;;;;;27.02;13.52;;;15.10;96.40;;;;;;5052457;28;20090;-49
2021/06/30 08:29:38;;;;;;;30.13;13.98;;;15.10;96.50;;;;;;5048933;28;20056;-50
2021/06/30 08:32:07;;;;;;;28.27;13.57;;;15.20;96.20;;;;;;5049813;28;20103;-48
2021/06/30 08:34:33;;;;;;;30.25;14.65;;;15.10;96.00;;;;;;5033596;28;20492;-48
2021/06/30 08:37:01;;;;;;;33.42;14.20;;;15.10;96.30;;;;;;5045389;28;20124;-48
2021/06/30 08:39:30;;;;;;;24.17;12.77;;;15.10;96.30;;;;;;5035377;28;20046;-50
2021/06/30 08:41:56;;;;;;;25.58;14.15;;;15.00;96.30;;;;;;5019306;28;20060;-51
2021/06/30 08:44:22;;;;;;;27.30;14.43;;;15.10;96.50;;;;;;5015525;28;20033;-50
2021/06/30 08:46:48;;;;;;;30.75;14.68;;;15.10;96.60;;;;;;4999315;28;20069;-47
2021/06/30 08:49:14;;;;;;;32.08;13.88;;;15.10;96.70;;;;;;5022131;28;20041;-47
2021/06/30 08:51:43;;;;;;;26.67;13.05;;;15.10;96.70;;;;;;5033532;28;20042;-48
2021/06/30 08:54:10;;;;;;;24.63;13.43;;;15.10;96.80;;;;;;5025577;28;20041;-51
2021/06/30 08:56:36;;;;;;;27.00;13.40;;;15.10;96.80;;;;;;5030649;28;20471;-49
2021/06/30 08:59:03;;;;;;;26.98;13.43;;;15.20;96.90;;;;;;5018826;28;20078;-47
2021/06/30 09:01:31;;;;;;;29.52;14.00;;;15.20;96.90;;;;;;5032702;28;20041;-50
2021/06/30 09:03:58;;;;;;;22.02;12.85;;;15.20;96.60;;;;;;5032230;28;20135;-49
2021/06/30 09:06:25;;;;;;;27.88;12.82;;;15.30;96.70;;;;;;5034991;28;20045;-48
2021/06/30 09:08:51;;;;;;;26.05;13.07;;;15.30;96.50;;;;;;5034237;28;20037;-47
2021/06/30 09:11:23;;;;;;;26.70;12.45;;;15.20;96.50;;;;;;5034470;28;20105;-50
2021/06/30 09:13:50;;;;;;;27.92;13.15;;;15.20;96.50;;;;;;5030655;28;20135;-50
2021/06/30 09:16:17;;;;;;;33.00;13.93;;;15.20;96.60;;;;;;5027994;28;20048;-52
2021/06/30 09:18:47;;;;;;;28.45;14.57;;;15.30;96.50;;;;;;5030298;28;20140;-51
2021/06/30 09:21:29;;;;;;;25.00;14.02;;;15.30;96.50;;;;;;5023429;28;20034;-49
2021/06/30 09:24:06;;;;;;;27.20;12.50;;;15.30;96.60;;;;;;5030053;28;20087;-51
2021/06/30 09:26:38;;;;;;;31.40;14.68;;;15.30;96.40;;;;;;5026369;28;20104;-49
2021/06/30 09:29:12;;;;;;;32.22;14.48;;;15.30;96.40;;;;;;5031547;28;20457;-51
2021/06/30 09:31:41;;;;;;;33.78;15.45;;;15.30;96.40;;;;;;5044719;28;20037;-49
2021/06/30 09:34:07;;;;;;;27.65;14.15;;;15.30;96.30;;;;;;5023224;28;20933;-51
2021/06/30 09:36:54;;;;;;;33.72;15.05;;;15.30;96.30;;;;;;5033223;28;20048;-52
2021/06/30 09:39:21;;;;;;;25.52;14.27;;;15.30;96.30;;;;;;5014638;28;20045;-47
2021/06/30 09:41:47;;;;;;;26.08;14.27;;;15.30;96.10;;;;;;5020401;28;20037;-50
2021/06/30 09:44:17;;;;;;;27.60;14.20;;;15.30;96.10;;;;;;5013424;28;20706;-51
2021/06/30 09:46:44;;;;;;;25.00;13.77;;;15.30;96.20;;;;;;5022216;28;20399;-50
2021/06/30 09:49:13;;;;;;;26.23;13.85;;;15.30;96.20;;;;;;5024471;28;20045;-47
2021/06/30 09:51:40;;;;;;;29.13;14.32;;;15.30;96.20;;;;;;5011550;28;20048;-50
2021/06/30 09:54:19;;;;;;;23.15;13.90;;;15.30;96.20;;;;;;5024894;28;20516;-51
2021/06/30 09:57:00;;;;;;;22.50;12.65;;;15.30;96.30;;;;;;5016930;28;20057;-48
2021/06/30 09:59:30;;;;;;;20.60;12.45;;;15.30;96.30;;;;;;5018144;28;20029;-52
2021/06/30 10:02:08;;;;;;;27.38;13.15;;;15.40;96.00;;;;;;5017264;28;20050;-48
2021/06/30 10:04:39;;;;;;;22.38;11.77;;;15.40;95.90;;;;;;5025161;28;20484;-48
2021/06/30 10:07:05;;;;;;;26.58;12.80;;;15.40;96.00;;;;;;5025116;28;20045;-47
2021/06/30 10:09:32;;;;;;;22.77;12.88;;;15.40;96.00;;;;;;5035877;28;20053;-47
2021/06/30 10:12:01;;;;;;;18.45;11.50;;;15.40;96.00;;;;;;5028091;28;20052;-50
2021/06/30 10:14:28;;;;;;;21.00;11.23;;;15.40;96.00;;;;;;5047289;28;20056;-50
2021/06/30 10:16:54;;;;;;;22.17;12.10;;;15.50;96.00;;;;;;5008329;28;20045;-49
2021/06/30 10:19:21;;;;;;;18.38;10.48;;;15.50;96.00;;;;;;5027600;28;20065;-47
2021/06/30 10:21:48;;;;;;;18.55;10.45;;;15.50;96.00;;;;;;5032718;28;20080;-47
2021/06/30 10:24:16;;;;;;;20.20;10.68;;;15.50;95.80;;;;;;5031693;28;20115;-48
2021/06/30 10:26:42;;;;;;;18.38;10.65;;;15.50;95.80;;;;;;5044068;28;20423;-49
2021/06/30 10:29:08;;;;;;;18.75;10.27;;;15.50;95.70;;;;;;5038580;28;20042;-50
2021/06/30 10:31:36;;;;;;;18.65;10.15;;;15.40;95.70;;;;;;5017688;28;20475;-50
2021/06/30 10:34:11;;;;;;;15.73;9.68;;;15.50;95.60;;;;;;5048503;28;20084;-47
2021/06/30 10:36:55;;;;;;;18.38;9.20;;;15.50;95.40;;;;;;5033145;28;20051;-51
2021/06/30 10:39:41;;;;;;;18.05;10.25;;;15.50;95.30;;;;;;5033355;28;20089;-49
2021/06/30 10:42:36;;;;;;;18.90;10.20;;;15.50;95.40;;;;;;5047402;28;20470;-48
2021/06/30 10:45:14;;;;;;;16.40;10.25;;;15.50;95.40;;;;;;5033183;28;20406;-48
2021/06/30 10:47:43;;;;;;;24.15;11.07;;;15.50;95.30;;;;;;5031453;28;20056;-48
2021/06/30 10:50:30;;;;;;;18.13;11.45;;;15.50;95.30;;;;;;5032037;28;20056;-49
2021/06/30 10:53:25;;;;;;;18.23;10.45;;;15.50;95.10;;;;;;5032047;28;20444;-49
2021/06/30 10:55:53;;;;;;;15.88;10.35;;;15.50;94.90;;;;;;5031001;28;20076;-48
2021/06/30 10:58:21;;;;;;;17.35;9.60;;;15.50;95.00;;;;;;5033265;28;20041;-50
2021/06/30 11:00:54;;;;;;;16.48;9.55;;;15.60;94.10;;;;;;5031729;28;20124;-50
2021/06/30 11:03:36;;;;;;;20.77;10.20;;;15.50;94.40;;;;;;5033575;28;20046;-50
2021/06/30 11:06:15;;;;;;;16.60;9.85;;;15.50;94.70;;;;;;5029536;28;20038;-49
2021/06/30 11:09:02;;;;;;;15.90;10.35;;;15.50;94.80;;;;;;5031939;28;20040;-51
2021/06/30 11:11:36;;;;;;;13.25;9.13;;;15.50;94.90;;;;;;5035873;28;20116;-48
2021/06/30 11:14:19;;;;;;;13.82;8.75;;;15.50;94.80;;;;;;5030602;28;20045;-50
2021/06/30 11:16:49;;;;;;;;;;;15.40;94.80;;;;;;5030802;28;20072;-49
2021/06/30 11:19:18;;;;;;;13.35;8.95;;;15.50;94.80;;;;;;5031677;28;20011;-49
2021/06/30 11:21:45;;;;;;;12.48;8.23;;;15.50;95.00;;;;;;5027138;28;20038;-47
2021/06/30 11:24:40;;;;;;;13.40;8.18;;;15.50;95.00;;;;;;5019348;28;20087;-47
2021/06/30 11:29:58;;;;;;;15.13;8.52;;;15.60;95.00;;;;;;5026730;28;20230;-49
2021/06/30 11:32:35;;;;;;;13.52;8.43;;;15.60;95.00;;;;;;5022924;28;20046;-52
2021/06/30 11:35:26;;;;;;;13.82;8.35;;;15.70;94.70;;;;;;5014002;28;20033;-48
2021/06/30 11:38:12;;;;;;;12.90;7.72;;;15.70;94.60;;;;;;5049401;28;20128;-47
2021/06/30 11:40:47;;;;;;;15.90;7.60;;;15.70;93.80;;;;;;5030526;28;20033;-48
2021/06/30 11:43:16;;;;;;;11.75;6.68;;;15.70;94.00;;;;;;5034751;28;20127;-49
2021/06/30 11:45:43;;;;;;;11.70;7.00;;;15.70;94.30;;;;;;5032877;28;20038;-50
2021/06/30 11:48:11;;;;;;;10.48;6.85;;;15.70;93.90;;;;;;5022978;28;20509;-49
2021/06/30 11:50:50;;;;;;;10.20;6.90;;;15.70;93.90;;;;;;5033542;28;20038;-47
2021/06/30 11:53:29;;;;;;;13.38;8.13;;;15.70;94.00;;;;;;5030951;28;20056;-49
2021/06/30 11:55:55;;;;;;;13.40;8.02;;;15.70;94.00;;;;;;5026447;28;20054;-49
2021/06/30 11:58:20;;;;;;;13.60;7.63;;;15.70;94.10;;;;;;5028549;28;20052;-50
2021/06/30 12:00:46;;;;;;;10.82;7.50;;;15.60;94.20;;;;;;5031408;28;20408;-48
2021/06/30 12:03:12;;;;;;;14.15;7.75;;;15.60;94.20;;;;;;5039720;28;20461;-47
2021/06/30 12:05:38;;;;;;;13.05;7.60;;;15.60;94.20;;;;;;5033718;28;20112;-49
2021/06/30 12:08:07;;;;;;;12.45;7.47;;;15.60;94.30;;;;;;5033079;28;20064;-48
2021/06/30 12:10:35;;;;;;;9.32;7.35;;;15.60;94.40;;;;;;5033016;28;20117;-48
2021/06/30 12:13:01;;;;;;;12.75;7.47;;;15.60;94.40;;;;;;5027720;28;20046;-47
2021/06/30 12:15:28;;;;;;;10.32;6.40;;;15.60;94.40;;;;;;5027435;28;20052;-51
2021/06/30 12:17:57;;;;;;;10.85;7.35;;;15.60;94.10;;;;;;5039242;28;20040;-49
2021/06/30 12:20:29;;;;;;;11.60;6.82;;;15.50;94.20;;;;;;5031844;28;20060;-49
2021/06/30 12:22:55;;;;;;;10.93;7.10;;;15.50;94.30;;;;;;5027931;28;20041;-47
2021/06/30 12:25:24;;;;;;;10.23;7.22;;;15.50;94.40;;;;;;5012836;28;20491;-51
2021/06/30 12:27:55;;;;;;;11.00;6.72;;;15.50;94.40;;;;;;5016086;28;20171;-48
2021/06/30 12:30:23;;;;;;;11.35;6.10;;;15.50;94.30;;;;;;5033743;28;20029;-51
2021/06/30 12:32:53;;;;;;;10.40;5.82;;;15.50;94.00;;;;;;5020230;28;20371;-49
2021/06/30 12:35:25;;;;;;;12.35;6.10;;;15.50;94.00;;;;;;5024245;28;20434;-48